createdAt,value
2019-01-25T00:00:38.940Z,35.53
2019-01-25T00:05:46.018Z,29.97
2019-01-25T00:10:51.754Z,31.97
2019-01-25T00:15:57.627Z,29.40
2019-01-25T00:21:03.370Z,29.37
2019-01-25T00:26:09.056Z,32.70
2019-01-25T00:31:14.930Z,28.50
2019-01-25T00:36:20.755Z,33.73
2019-01-25T00:41:26.718Z,27.83
2019-01-25T00:46:33.339Z,32.70
2019-01-25T00:51:39.589Z,28.80
2019-01-25T00:56:45.335Z,26.30
2019-01-25T01:01:51.057Z,27.80
2019-01-25T01:06:57.292Z,30.53
2019-01-25T01:12:03.679Z,25.37
2019-01-25T01:17:10.548Z,27.90
2019-01-25T01:22:16.262Z,31.35
2019-01-25T01:27:22.243Z,33.70
2019-01-25T01:32:28.568Z,30.67
2019-01-25T01:37:34.827Z,32.90
2019-01-25T01:42:40.893Z,30.23
2019-01-25T01:47:46.781Z,25.07
2019-01-25T01:52:52.515Z,25.40
2019-01-25T01:57:58.307Z,27.53
2019-01-25T02:03:04.370Z,27.43
2019-01-25T02:08:10.486Z,26.00
2019-01-25T02:13:16.500Z,27.67
2019-01-25T02:18:22.395Z,23.12
2019-01-25T02:23:28.862Z,22.50
2019-01-25T02:28:34.708Z,26.43
2019-01-25T02:33:40.752Z,28.33
2019-01-25T02:38:46.507Z,21.30
2019-01-25T02:43:52.254Z,23.60
2019-01-25T02:48:57.954Z,23.77
2019-01-25T02:54:03.758Z,21.90
2019-01-25T02:59:09.478Z,22.77
2019-01-25T03:04:15.259Z,22.02
2019-01-25T03:09:21.455Z,27.03
2019-01-25T03:14:27.215Z,23.10
2019-01-25T03:19:32.972Z,23.17
2019-01-25T03:24:39.754Z,23.53
2019-01-25T03:29:45.444Z,22.33
2019-01-25T03:34:51.302Z,25.03
2019-01-25T03:39:56.976Z,24.27
2019-01-25T03:45:02.827Z,22.33
2019-01-25T03:50:12.158Z,23.97
2019-01-25T03:55:17.891Z,23.40
2019-01-25T04:00:25.835Z,26.67
2019-01-25T04:05:31.638Z,24.60
2019-01-25T04:10:37.750Z,23.57
2019-01-25T04:15:43.810Z,22.50
2019-01-25T04:20:49.577Z,23.93
2019-01-25T04:25:55.284Z,22.47
2019-01-25T04:31:01.364Z,22.77
2019-01-25T04:36:07.257Z,24.80
2019-01-25T04:41:12.983Z,22.90
2019-01-25T04:46:19.252Z,20.73
2019-01-25T04:51:25.038Z,20.67
2019-01-25T04:56:34.793Z,22.43
2019-01-25T05:01:40.770Z,22.30
2019-01-25T05:06:46.688Z,20.90
2019-01-25T05:11:52.492Z,21.47
2019-01-25T05:16:58.238Z,20.23
2019-01-25T05:22:05.132Z,19.30
2019-01-25T05:27:10.819Z,16.33
2019-01-25T05:32:16.530Z,18.37
2019-01-25T05:37:22.299Z,17.82
2019-01-25T05:42:27.978Z,18.40
2019-01-25T05:47:33.686Z,18.17
2019-01-25T05:52:39.570Z,24.80
2019-01-25T05:57:45.720Z,24.50
2019-01-25T06:02:51.541Z,26.20
2019-01-25T06:07:57.406Z,21.13
2019-01-25T06:13:03.542Z,20.20
2019-01-25T06:18:09.406Z,20.97
2019-01-25T06:23:15.440Z,19.85
2019-01-25T06:28:21.470Z,21.90
2019-01-25T06:33:27.494Z,19.00
2019-01-25T06:38:33.596Z,19.10
2019-01-25T06:43:39.331Z,17.53
2019-01-25T06:48:45.032Z,13.83
2019-01-25T06:53:50.803Z,11.53
2019-01-25T06:58:58.150Z,10.17
2019-01-25T07:04:05.262Z,13.47
2019-01-25T07:09:10.955Z,16.37
2019-01-25T07:14:17.184Z,12.60
2019-01-25T07:19:23.092Z,13.40
2019-01-25T07:24:29.264Z,14.17
2019-01-25T07:29:34.997Z,18.10
2019-01-25T07:34:40.825Z,13.73
2019-01-25T07:39:46.922Z,21.40
2019-01-25T07:44:52.903Z,19.10
2019-01-25T07:49:58.666Z,21.03
2019-01-25T07:55:06.599Z,15.83
2019-01-25T08:00:16.954Z,17.37
2019-01-25T08:05:23.059Z,19.17
2019-01-25T08:10:28.737Z,18.77
2019-01-25T08:15:34.898Z,13.60
2019-01-25T08:20:41.120Z,15.13
2019-01-25T08:25:47.119Z,17.05
2019-01-25T08:30:53.371Z,13.70
2019-01-25T08:35:59.659Z,12.00
2019-01-25T08:41:05.815Z,30.20
2019-01-25T08:46:11.909Z,15.40
2019-01-25T08:51:17.906Z,12.10
2019-01-25T08:56:23.884Z,40.97
2019-01-25T09:01:29.963Z,17.03
2019-01-25T09:06:35.689Z,17.83
2019-01-25T09:11:41.425Z,19.07
2019-01-25T09:16:47.504Z,12.50
2019-01-25T09:21:53.480Z,19.53
2019-01-25T09:27:00.547Z,25.20
2019-01-25T09:32:06.317Z,14.33
2019-01-25T09:37:12.079Z,21.73
2019-01-25T09:42:19.276Z,14.73
2019-01-25T09:47:25.256Z,13.57
2019-01-25T09:52:30.945Z,17.40
2019-01-25T09:57:36.969Z,20.30
2019-01-25T10:02:43.195Z,13.80
2019-01-25T10:07:49.249Z,16.33
2019-01-25T10:12:55.013Z,15.90
2019-01-25T10:18:00.905Z,33.73
2019-01-25T10:23:06.823Z,18.10
2019-01-25T10:28:12.577Z,13.73
2019-01-25T10:33:18.358Z,18.03
2019-01-25T10:38:24.123Z,28.83
2019-01-25T10:43:30.034Z,18.43
2019-01-25T10:48:35.722Z,20.27
2019-01-25T10:53:41.447Z,22.50
2019-01-25T10:58:47.206Z,19.90
2019-01-25T11:03:54.521Z,21.07
2019-01-25T11:09:00.413Z,20.37
2019-01-25T11:14:06.510Z,18.30
2019-01-25T11:19:12.682Z,18.17
2019-01-25T11:24:18.681Z,19.32
2019-01-25T11:29:24.603Z,23.63
2019-01-25T11:34:33.083Z,20.87
2019-01-25T11:39:37.849Z,25.40
2019-01-25T11:44:43.921Z,91.80
2019-01-25T11:49:49.886Z,26.50
2019-01-25T11:54:55.912Z,26.77
2019-01-25T12:00:01.954Z,25.33
2019-01-25T12:05:10.333Z,20.40
2019-01-25T12:10:19.510Z,19.80
2019-01-25T12:15:25.431Z,20.43
2019-01-25T12:20:33.446Z,20.77
2019-01-25T12:25:39.570Z,26.13
2019-01-25T12:30:45.761Z,26.37
2019-01-25T12:35:51.737Z,28.63
2019-01-25T12:40:57.713Z,35.13
2019-01-25T12:46:03.795Z,27.27
2019-01-25T12:51:14.137Z,22.58
2019-01-25T12:56:19.929Z,37.77
2019-01-25T13:01:25.674Z,60.50
2019-01-25T13:06:31.643Z,38.17
2019-01-25T13:11:37.549Z,60.67
2019-01-25T13:16:43.309Z,43.73
2019-01-25T13:21:50.821Z,32.40
2019-01-25T13:26:56.633Z,26.60
2019-01-25T13:32:02.353Z,24.77
2019-01-25T13:37:08.311Z,28.50
2019-01-25T13:42:14.210Z,32.77
2019-01-25T13:47:19.932Z,39.67
2019-01-25T13:52:25.608Z,33.93
2019-01-25T13:57:31.575Z,27.87
2019-01-25T14:02:37.585Z,37.70
2019-01-25T14:07:43.542Z,38.57
2019-01-25T14:12:49.825Z,27.67
2019-01-25T14:17:55.858Z,38.33
2019-01-25T14:23:01.860Z,39.57
2019-01-25T14:28:07.694Z,37.33
2019-01-25T14:33:13.818Z,29.63
2019-01-25T14:38:19.685Z,40.83
2019-01-25T14:43:25.492Z,28.90
2019-01-25T14:48:31.299Z,34.50
2019-01-25T14:53:37.284Z,38.47
2019-01-25T14:58:43.030Z,33.57
2019-01-25T15:03:49.093Z,47.27
2019-01-25T15:08:55.277Z,53.50
2019-01-25T15:14:02.671Z,33.10
2019-01-25T15:19:08.872Z,32.98
2019-01-25T15:24:15.510Z,32.40
2019-01-25T15:29:21.729Z,32.47
2019-01-25T15:34:27.629Z,34.37
2019-01-25T15:39:33.622Z,32.77
2019-01-25T15:44:40.025Z,27.03
2019-01-25T15:49:45.971Z,34.47
2019-01-25T15:54:51.750Z,29.97
2019-01-25T15:59:58.426Z,49.93
2019-01-25T16:05:09.574Z,32.70
2019-01-25T16:10:17.449Z,29.13
2019-01-25T16:15:25.795Z,30.83
2019-01-25T16:20:31.512Z,30.77
2019-01-25T16:25:37.493Z,31.77
2019-01-25T16:30:43.707Z,29.07
2019-01-25T16:35:49.521Z,31.77
2019-01-25T16:40:55.677Z,32.23
2019-01-25T16:46:01.850Z,27.20
2019-01-25T16:51:07.736Z,28.38
2019-01-25T16:56:13.620Z,43.10
2019-01-25T17:01:19.463Z,84.22
2019-01-25T17:06:25.192Z,40.23
2019-01-25T17:11:30.969Z,61.87
2019-01-25T17:16:36.703Z,44.30
2019-01-25T17:21:42.521Z,50.70
2019-01-25T17:26:48.647Z,41.47
2019-01-25T17:31:54.297Z,58.17
2019-01-25T17:37:00.141Z,49.03
2019-01-25T17:42:05.970Z,94.77
2019-01-25T17:47:11.746Z,102.27
2019-01-25T17:52:17.608Z,61.30
2019-01-25T17:57:23.346Z,50.15
2019-01-25T18:02:30.226Z,41.27
2019-01-25T18:07:35.984Z,44.03
2019-01-25T18:12:41.751Z,40.20
2019-01-25T18:17:47.547Z,42.30
2019-01-25T18:22:53.704Z,39.27
2019-01-25T18:28:04.779Z,46.37
2019-01-25T18:33:10.790Z,70.13
2019-01-25T18:38:16.675Z,71.20
2019-01-25T18:43:22.548Z,46.90
2019-01-25T18:48:29.456Z,51.17
2019-01-25T18:53:35.356Z,50.23
2019-01-25T18:58:41.166Z,49.87
2019-01-25T19:03:47.128Z,46.20
2019-01-25T19:08:53.125Z,39.10
2019-01-25T19:13:58.926Z,39.00
2019-01-25T19:19:05.734Z,85.75
2019-01-25T19:24:11.888Z,66.17
2019-01-25T19:29:18.050Z,35.40
2019-01-25T19:34:23.851Z,36.00
2019-01-25T19:39:29.640Z,33.55
2019-01-25T19:44:35.889Z,35.20
2019-01-25T19:49:41.875Z,29.87
2019-01-25T19:54:47.902Z,34.37
2019-01-25T19:59:53.832Z,29.27
2019-01-25T20:05:01.193Z,30.03
2019-01-25T20:10:11.196Z,30.40
2019-01-25T20:15:20.497Z,33.13
2019-01-25T20:20:29.576Z,32.80
2019-01-25T20:25:35.863Z,33.43
2019-01-25T20:30:49.426Z,43.13
2019-01-25T20:35:49.821Z,36.73
2019-01-25T20:40:55.911Z,57.77
2019-01-25T20:46:02.076Z,56.00
2019-01-25T20:51:07.892Z,46.80
2019-01-25T20:56:14.057Z,41.18
2019-01-25T21:01:22.616Z,41.05
2019-01-25T21:06:28.393Z,41.77
2019-01-25T21:11:34.115Z,42.43
2019-01-25T21:16:40.133Z,43.53
2019-01-25T21:21:45.962Z,46.77
2019-01-25T21:26:51.690Z,48.07
2019-01-25T21:31:57.500Z,51.23
2019-01-25T21:37:03.480Z,50.70
2019-01-25T21:42:09.400Z,51.47
2019-01-25T21:47:15.358Z,56.70
2019-01-25T21:52:21.360Z,47.90
2019-01-25T21:57:27.112Z,49.10
2019-01-25T22:02:33.024Z,45.97
2019-01-25T22:07:38.776Z,48.95
2019-01-25T22:12:44.468Z,45.83
2019-01-25T22:17:50.292Z,43.93
2019-01-25T22:22:55.984Z,46.37
2019-01-25T22:28:01.739Z,47.57
2019-01-25T22:33:07.403Z,39.27
2019-01-25T22:38:13.164Z,52.47
2019-01-25T22:43:19.039Z,40.47
2019-01-25T22:48:24.736Z,44.70
2019-01-25T22:53:30.474Z,45.97
2019-01-25T22:58:36.172Z,45.43
2019-01-25T23:03:45.319Z,38.63
2019-01-25T23:08:51.085Z,42.07
2019-01-25T23:13:57.229Z,44.40
2019-01-25T23:19:03.054Z,44.98
2019-01-25T23:24:09.113Z,45.23
2019-01-25T23:29:14.997Z,42.83
2019-01-25T23:34:21.049Z,44.23
2019-01-25T23:39:26.948Z,42.87
2019-01-25T23:44:32.637Z,41.60
2019-01-25T23:49:38.370Z,43.13
2019-01-25T23:54:44.060Z,43.70
2019-01-25T23:59:50.578Z,42.17
